sensor_id;sensor_type;location;lat;lon;timestamp;temperature;humidity
36384;DHT22;22418;51.210;6.976;2024-03-22T00:00:52;12.70;1.00
36384;DHT22;22418;51.210;6.976;2024-03-22T00:03:22;12.70;1.00
36384;DHT22;22418;51.210;6.976;2024-03-22T00:05:53;12.70;1.00
36384;DHT22;22418;51.210;6.976;2024-03-22T00:08:23;12.60;1.00
36384;DHT22;22418;51.210;6.976;2024-03-22T00:10:55;12.70;1.00
36384;DHT22;22418;51.210;6.976;2024-03-22T00:13:25;12.70;1.00
36384;DHT22;22418;51.210;6.976;2024-03-22T00:15:56;12.70;1.00
36384;DHT22;22418;51.210;6.976;2024-03-22T00:18:26;12.60;1.00
36384;DHT22;22418;51.210;6.976;2024-03-22T00:20:57;12.70;1.00
36384;DHT22;22418;51.210;6.976;2024-03-22T00:23:27;12.80;1.00
36384;DHT22;22418;51.210;6.976;2024-03-22T00:25:59;12.70;1.00
36384;DHT22;22418;51.210;6.976;2024-03-22T00:28:30;12.70;1.00
36384;DHT22;22418;51.210;6.976;2024-03-22T00:31:00;12.70;1.00
36384;DHT22;22418;51.210;6.976;2024-03-22T00:33:31;12.70;1.00
36384;DHT22;22418;51.210;6.976;2024-03-22T00:36:02;12.70;1.00
36384;DHT22;22418;51.210;6.976;2024-03-22T00:38:32;12.70;1.00
36384;DHT22;22418;51.210;6.976;2024-03-22T00:41:03;12.60;1.00
36384;DHT22;22418;51.210;6.976;2024-03-22T00:43:34;12.70;1.00
36384;DHT22;22418;51.210;6.976;2024-03-22T00:46:04;12.70;1.00
36384;DHT22;22418;51.210;6.976;2024-03-22T00:48:35;12.70;1.00
36384;DHT22;22418;51.210;6.976;2024-03-22T00:51:06;12.70;1.00
36384;DHT22;22418;51.210;6.976;2024-03-22T00:53:37;12.60;1.00
36384;DHT22;22418;51.210;6.976;2024-03-22T00:56:08;12.60;1.00
36384;DHT22;22418;51.210;6.976;2024-03-22T00:58:38;12.60;1.00
36384;DHT22;22418;51.210;6.976;2024-03-22T01:01:09;12.60;1.00
36384;DHT22;22418;51.210;6.976;2024-03-22T01:03:39;12.60;1.00
36384;DHT22;22418;51.210;6.976;2024-03-22T01:06:10;12.50;1.00
36384;DHT22;22418;51.210;6.976;2024-03-22T01:08:41;12.50;1.00
36384;DHT22;22418;51.210;6.976;2024-03-22T01:11:11;12.50;1.00
36384;DHT22;22418;51.210;6.976;2024-03-22T01:13:42;12.50;1.00
36384;DHT22;22418;51.210;6.976;2024-03-22T01:16:12;12.50;1.00
36384;DHT22;22418;51.210;6.976;2024-03-22T01:18:43;12.60;1.00
36384;DHT22;22418;51.210;6.976;2024-03-22T01:21:13;12.50;1.00
36384;DHT22;22418;51.210;6.976;2024-03-22T01:23:44;12.50;1.00
36384;DHT22;22418;51.210;6.976;2024-03-22T01:26:14;12.50;1.00
36384;DHT22;22418;51.210;6.976;2024-03-22T01:28:46;12.50;1.00
36384;DHT22;22418;51.210;6.976;2024-03-22T01:31:17;12.50;1.00
36384;DHT22;22418;51.210;6.976;2024-03-22T01:33:47;12.50;1.00
36384;DHT22;22418;51.210;6.976;2024-03-22T01:36:18;12.50;1.00
36384;DHT22;22418;51.210;6.976;2024-03-22T01:38:48;12.60;1.00
36384;DHT22;22418;51.210;6.976;2024-03-22T01:41:19;12.60;1.00
36384;DHT22;22418;51.210;6.976;2024-03-22T01:43:49;12.60;1.00
36384;DHT22;22418;51.210;6.976;2024-03-22T01:46:20;12.60;1.00
36384;DHT22;22418;51.210;6.976;2024-03-22T01:48:51;12.60;1.00
36384;DHT22;22418;51.210;6.976;2024-03-22T01:51:21;12.50;1.00
36384;DHT22;22418;51.210;6.976;2024-03-22T01:53:53;12.50;1.00
36384;DHT22;22418;51.210;6.976;2024-03-22T01:56:24;12.50;1.00
36384;DHT22;22418;51.210;6.976;2024-03-22T01:58:55;12.50;1.00
36384;DHT22;22418;51.210;6.976;2024-03-22T02:01:26;12.40;1.00
36384;DHT22;22418;51.210;6.976;2024-03-22T02:03:57;12.40;1.00
36384;DHT22;22418;51.210;6.976;2024-03-22T02:06:28;12.50;1.00
36384;DHT22;22418;51.210;6.976;2024-03-22T02:08:58;12.50;1.00
36384;DHT22;22418;51.210;6.976;2024-03-22T02:11:29;12.40;1.00
36384;DHT22;22418;51.210;6.976;2024-03-22T02:13:59;12.40;1.00
36384;DHT22;22418;51.210;6.976;2024-03-22T02:16:30;12.40;1.00
36384;DHT22;22418;51.210;6.976;2024-03-22T02:19:01;12.40;1.00
36384;DHT22;22418;51.210;6.976;2024-03-22T02:21:31;12.40;1.00
36384;DHT22;22418;51.210;6.976;2024-03-22T02:24:02;12.40;1.00
36384;DHT22;22418;51.210;6.976;2024-03-22T02:26:33;12.40;1.00
36384;DHT22;22418;51.210;6.976;2024-03-22T02:29:03;12.50;1.00
36384;DHT22;22418;51.210;6.976;2024-03-22T02:31:34;12.50;1.00
36384;DHT22;22418;51.210;6.976;2024-03-22T02:34:04;12.60;1.00
36384;DHT22;22418;51.210;6.976;2024-03-22T02:36:35;12.60;1.00
36384;DHT22;22418;51.210;6.976;2024-03-22T02:39:06;12.50;1.00
36384;DHT22;22418;51.210;6.976;2024-03-22T02:41:37;12.50;1.00
36384;DHT22;22418;51.210;6.976;2024-03-22T02:44:07;12.50;1.00
36384;DHT22;22418;51.210;6.976;2024-03-22T02:46:38;12.50;1.00
36384;DHT22;22418;51.210;6.976;2024-03-22T02:49:08;12.50;1.00
36384;DHT22;22418;51.210;6.976;2024-03-22T02:51:39;12.50;1.00
36384;DHT22;22418;51.210;6.976;2024-03-22T02:54:10;12.50;1.00
36384;DHT22;22418;51.210;6.976;2024-03-22T02:56:40;12.60;1.00
36384;DHT22;22418;51.210;6.976;2024-03-22T02:59:11;12.60;1.00
36384;DHT22;22418;51.210;6.976;2024-03-22T03:01:42;12.60;1.00
36384;DHT22;22418;51.210;6.976;2024-03-22T03:04:12;12.60;1.00
36384;DHT22;22418;51.210;6.976;2024-03-22T03:06:43;12.60;1.00
36384;DHT22;22418;51.210;6.976;2024-03-22T03:09:14;12.50;1.00
36384;DHT22;22418;51.210;6.976;2024-03-22T03:11:45;12.50;1.00
36384;DHT22;22418;51.210;6.976;2024-03-22T03:14:15;12.50;1.00
36384;DHT22;22418;51.210;6.976;2024-03-22T03:16:46;12.50;1.00
36384;DHT22;22418;51.210;6.976;2024-03-22T03:19:16;12.50;1.00
36384;DHT22;22418;51.210;6.976;2024-03-22T03:21:47;12.60;1.00
36384;DHT22;22418;51.210;6.976;2024-03-22T03:24:18;12.60;1.00
36384;DHT22;22418;51.210;6.976;2024-03-22T03:26:48;12.50;1.00
36384;DHT22;22418;51.210;6.976;2024-03-22T03:29:19;12.40;1.00
36384;DHT22;22418;51.210;6.976;2024-03-22T03:31:50;12.50;1.00
36384;DHT22;22418;51.210;6.976;2024-03-22T03:34:20;12.50;1.00
36384;DHT22;22418;51.210;6.976;2024-03-22T03:36:51;12.50;1.00
36384;DHT22;22418;51.210;6.976;2024-03-22T03:39:21;12.50;1.00
36384;DHT22;22418;51.210;6.976;2024-03-22T03:41:52;12.40;1.00
36384;DHT22;22418;51.210;6.976;2024-03-22T03:44:22;12.40;1.00
36384;DHT22;22418;51.210;6.976;2024-03-22T03:46:53;12.40;1.00
36384;DHT22;22418;51.210;6.976;2024-03-22T03:49:23;12.50;1.00
36384;DHT22;22418;51.210;6.976;2024-03-22T03:51:54;12.40;1.00
36384;DHT22;22418;51.210;6.976;2024-03-22T03:54:24;12.50;1.00
36384;DHT22;22418;51.210;6.976;2024-03-22T03:56:55;12.30;1.00
36384;DHT22;22418;51.210;6.976;2024-03-22T03:59:26;12.40;1.00
36384;DHT22;22418;51.210;6.976;2024-03-22T04:01:56;12.30;1.00
36384;DHT22;22418;51.210;6.976;2024-03-22T04:04:27;12.30;1.00
36384;DHT22;22418;51.210;6.976;2024-03-22T04:06:57;12.30;1.00
36384;DHT22;22418;51.210;6.976;2024-03-22T04:09:28;12.30;1.00
36384;DHT22;22418;51.210;6.976;2024-03-22T04:11:58;12.30;1.00
36384;DHT22;22418;51.210;6.976;2024-03-22T04:14:29;12.30;1.00
36384;DHT22;22418;51.210;6.976;2024-03-22T04:16:59;12.30;1.00
36384;DHT22;22418;51.210;6.976;2024-03-22T04:19:30;12.20;1.00
36384;DHT22;22418;51.210;6.976;2024-03-22T04:22:01;12.20;1.00
36384;DHT22;22418;51.210;6.976;2024-03-22T04:24:32;12.10;1.00
36384;DHT22;22418;51.210;6.976;2024-03-22T04:27:03;12.20;1.00
36384;DHT22;22418;51.210;6.976;2024-03-22T04:29:33;12.10;1.00
36384;DHT22;22418;51.210;6.976;2024-03-22T04:32:04;12.00;1.00
36384;DHT22;22418;51.210;6.976;2024-03-22T04:34:34;12.10;1.00
36384;DHT22;22418;51.210;6.976;2024-03-22T04:37:05;12.10;1.00
36384;DHT22;22418;51.210;6.976;2024-03-22T04:39:37;12.00;1.00
36384;DHT22;22418;51.210;6.976;2024-03-22T04:42:07;12.00;1.00
36384;DHT22;22418;51.210;6.976;2024-03-22T04:44:38;12.00;1.00
36384;DHT22;22418;51.210;6.976;2024-03-22T04:47:09;12.00;1.00
36384;DHT22;22418;51.210;6.976;2024-03-22T04:49:39;12.00;1.00
36384;DHT22;22418;51.210;6.976;2024-03-22T04:52:10;12.00;1.00
36384;DHT22;22418;51.210;6.976;2024-03-22T04:54:40;12.00;1.00
36384;DHT22;22418;51.210;6.976;2024-03-22T04:57:11;12.00;1.00
36384;DHT22;22418;51.210;6.976;2024-03-22T04:59:41;12.00;1.00
36384;DHT22;22418;51.210;6.976;2024-03-22T05:02:12;12.10;1.00
36384;DHT22;22418;51.210;6.976;2024-03-22T05:04:42;12.20;1.00
36384;DHT22;22418;51.210;6.976;2024-03-22T05:07:13;12.10;1.00
36384;DHT22;22418;51.210;6.976;2024-03-22T05:09:43;12.10;1.00
36384;DHT22;22418;51.210;6.976;2024-03-22T05:12:14;12.10;1.00
36384;DHT22;22418;51.210;6.976;2024-03-22T05:14:44;12.20;1.00
36384;DHT22;22418;51.210;6.976;2024-03-22T05:17:15;12.20;1.00
36384;DHT22;22418;51.210;6.976;2024-03-22T05:19:45;12.20;1.00
36384;DHT22;22418;51.210;6.976;2024-03-22T05:22:16;12.30;1.00
36384;DHT22;22418;51.210;6.976;2024-03-22T05:24:46;12.20;1.00
36384;DHT22;22418;51.210;6.976;2024-03-22T05:27:20;12.30;1.00
36384;DHT22;22418;51.210;6.976;2024-03-22T05:29:51;12.30;1.00
36384;DHT22;22418;51.210;6.976;2024-03-22T05:32:21;12.30;1.00
36384;DHT22;22418;51.210;6.976;2024-03-22T05:34:52;12.30;1.00
36384;DHT22;22418;51.210;6.976;2024-03-22T05:37:23;12.30;1.00
36384;DHT22;22418;51.210;6.976;2024-03-22T05:39:54;12.40;1.00
36384;DHT22;22418;51.210;6.976;2024-03-22T05:42:25;12.30;1.00
36384;DHT22;22418;51.210;6.976;2024-03-22T05:44:55;12.40;1.00
36384;DHT22;22418;51.210;6.976;2024-03-22T05:47:26;12.40;1.00
36384;DHT22;22418;51.210;6.976;2024-03-22T05:49:57;12.40;1.00
36384;DHT22;22418;51.210;6.976;2024-03-22T05:52:28;12.40;1.00
36384;DHT22;22418;51.210;6.976;2024-03-22T05:54:58;12.40;1.00
36384;DHT22;22418;51.210;6.976;2024-03-22T05:57:29;12.40;1.00
36384;DHT22;22418;51.210;6.976;2024-03-22T05:59:59;12.50;1.00
36384;DHT22;22418;51.210;6.976;2024-03-22T06:02:30;12.60;1.00
36384;DHT22;22418;51.210;6.976;2024-03-22T06:05:01;12.60;1.00
36384;DHT22;22418;51.210;6.976;2024-03-22T06:07:31;12.60;1.00
36384;DHT22;22418;51.210;6.976;2024-03-22T06:10:10;12.70;1.00
36384;DHT22;22418;51.210;6.976;2024-03-22T06:12:41;12.70;1.00
36384;DHT22;22418;51.210;6.976;2024-03-22T06:15:11;12.70;1.00
36384;DHT22;22418;51.210;6.976;2024-03-22T06:17:42;12.70;1.00
36384;DHT22;22418;51.210;6.976;2024-03-22T06:20:13;12.80;1.00
36384;DHT22;22418;51.210;6.976;2024-03-22T06:22:44;12.80;1.00
36384;DHT22;22418;51.210;6.976;2024-03-22T06:25:15;12.70;1.00
36384;DHT22;22418;51.210;6.976;2024-03-22T06:27:45;12.90;1.00
36384;DHT22;22418;51.210;6.976;2024-03-22T06:30:16;12.90;1.00
36384;DHT22;22418;51.210;6.976;2024-03-22T06:32:46;12.90;1.00
36384;DHT22;22418;51.210;6.976;2024-03-22T06:35:17;12.90;1.00
36384;DHT22;22418;51.210;6.976;2024-03-22T06:37:47;13.10;1.00
36384;DHT22;22418;51.210;6.976;2024-03-22T06:40:19;13.20;1.00
36384;DHT22;22418;51.210;6.976;2024-03-22T06:42:49;13.30;1.00
36384;DHT22;22418;51.210;6.976;2024-03-22T06:45:20;13.50;1.00
36384;DHT22;22418;51.210;6.976;2024-03-22T06:47:51;13.60;1.00
36384;DHT22;22418;51.210;6.976;2024-03-22T06:50:21;13.80;1.00
36384;DHT22;22418;51.210;6.976;2024-03-22T06:52:54;13.90;1.00
36384;DHT22;22418;51.210;6.976;2024-03-22T06:55:25;13.90;1.00
36384;DHT22;22418;51.210;6.976;2024-03-22T06:57:55;14.00;1.00
36384;DHT22;22418;51.210;6.976;2024-03-22T07:00:28;14.10;1.00
36384;DHT22;22418;51.210;6.976;2024-03-22T07:02:59;14.20;1.00
36384;DHT22;22418;51.210;6.976;2024-03-22T07:05:32;14.20;1.00
36384;DHT22;22418;51.210;6.976;2024-03-22T07:08:03;14.20;1.00
36384;DHT22;22418;51.210;6.976;2024-03-22T07:10:35;14.20;1.00
36384;DHT22;22418;51.210;6.976;2024-03-22T07:13:09;14.20;1.00
36384;DHT22;22418;51.210;6.976;2024-03-22T07:15:40;14.20;1.00
36384;DHT22;22418;51.210;6.976;2024-03-22T07:18:10;14.10;1.00
36384;DHT22;22418;51.210;6.976;2024-03-22T07:20:41;14.00;1.00
36384;DHT22;22418;51.210;6.976;2024-03-22T07:23:12;14.10;1.00
36384;DHT22;22418;51.210;6.976;2024-03-22T07:25:43;14.10;1.00
36384;DHT22;22418;51.210;6.976;2024-03-22T07:28:16;14.10;1.00
36384;DHT22;22418;51.210;6.976;2024-03-22T07:30:46;14.20;1.00
36384;DHT22;22418;51.210;6.976;2024-03-22T07:33:17;14.30;1.00
36384;DHT22;22418;51.210;6.976;2024-03-22T07:35:48;14.40;1.00
36384;DHT22;22418;51.210;6.976;2024-03-22T07:38:18;14.40;1.00
36384;DHT22;22418;51.210;6.976;2024-03-22T07:40:49;14.60;1.00
36384;DHT22;22418;51.210;6.976;2024-03-22T07:43:20;14.60;1.00
36384;DHT22;22418;51.210;6.976;2024-03-22T07:45:50;14.70;1.00
36384;DHT22;22418;51.210;6.976;2024-03-22T07:48:21;14.90;1.00
36384;DHT22;22418;51.210;6.976;2024-03-22T07:50:58;15.20;1.00
36384;DHT22;22418;51.210;6.976;2024-03-22T07:53:29;15.50;1.00
36384;DHT22;22418;51.210;6.976;2024-03-22T07:55:59;15.70;1.00
36384;DHT22;22418;51.210;6.976;2024-03-22T07:58:30;15.90;1.00
36384;DHT22;22418;51.210;6.976;2024-03-22T08:01:01;16.00;1.00
36384;DHT22;22418;51.210;6.976;2024-03-22T08:03:32;16.10;1.00
36384;DHT22;22418;51.210;6.976;2024-03-22T08:06:03;16.20;1.00
36384;DHT22;22418;51.210;6.976;2024-03-22T08:08:34;16.20;1.00
36384;DHT22;22418;51.210;6.976;2024-03-22T08:11:04;16.40;1.00
36384;DHT22;22418;51.210;6.976;2024-03-22T08:13:35;16.50;1.00
36384;DHT22;22418;51.210;6.976;2024-03-22T08:16:06;16.50;1.00
36384;DHT22;22418;51.210;6.976;2024-03-22T08:18:36;16.60;1.00
36384;DHT22;22418;51.210;6.976;2024-03-22T08:21:07;16.50;1.00
36384;DHT22;22418;51.210;6.976;2024-03-22T08:23:37;16.60;1.00
36384;DHT22;22418;51.210;6.976;2024-03-22T08:26:08;16.70;1.00
36384;DHT22;22418;51.210;6.976;2024-03-22T08:28:38;16.70;1.00
36384;DHT22;22418;51.210;6.976;2024-03-22T08:31:09;16.60;1.00
36384;DHT22;22418;51.210;6.976;2024-03-22T08:33:40;16.70;1.00
36384;DHT22;22418;51.210;6.976;2024-03-22T08:36:10;16.60;1.00
36384;DHT22;22418;51.210;6.976;2024-03-22T08:38:41;16.50;1.00
36384;DHT22;22418;51.210;6.976;2024-03-22T08:41:11;16.40;1.00
36384;DHT22;22418;51.210;6.976;2024-03-22T08:43:42;16.40;1.00
36384;DHT22;22418;51.210;6.976;2024-03-22T08:46:12;16.40;1.00
36384;DHT22;22418;51.210;6.976;2024-03-22T08:48:43;16.60;1.00
36384;DHT22;22418;51.210;6.976;2024-03-22T08:51:14;16.60;1.00
36384;DHT22;22418;51.210;6.976;2024-03-22T08:53:44;16.80;1.00
36384;DHT22;22418;51.210;6.976;2024-03-22T08:56:15;16.80;99.90
36384;DHT22;22418;51.210;6.976;2024-03-22T08:58:45;16.90;99.90
36384;DHT22;22418;51.210;6.976;2024-03-22T09:01:16;16.80;99.90
36384;DHT22;22418;51.210;6.976;2024-03-22T09:03:48;16.90;99.90
36384;DHT22;22418;51.210;6.976;2024-03-22T09:06:19;16.80;99.90
36384;DHT22;22418;51.210;6.976;2024-03-22T09:08:50;16.80;99.90
36384;DHT22;22418;51.210;6.976;2024-03-22T09:11:20;16.70;99.90
36384;DHT22;22418;51.210;6.976;2024-03-22T09:13:52;16.60;99.90
36384;DHT22;22418;51.210;6.976;2024-03-22T09:16:23;16.60;99.90
36384;DHT22;22418;51.210;6.976;2024-03-22T09:18:54;16.70;99.90
36384;DHT22;22418;51.210;6.976;2024-03-22T09:21:24;16.70;99.90
36384;DHT22;22418;51.210;6.976;2024-03-22T09:23:55;16.70;99.90
36384;DHT22;22418;51.210;6.976;2024-03-22T09:26:25;16.80;99.90
36384;DHT22;22418;51.210;6.976;2024-03-22T09:28:56;16.80;99.90
36384;DHT22;22418;51.210;6.976;2024-03-22T09:31:27;16.70;99.90
36384;DHT22;22418;51.210;6.976;2024-03-22T09:33:57;16.80;99.90
36384;DHT22;22418;51.210;6.976;2024-03-22T09:36:28;16.60;99.90
36384;DHT22;22418;51.210;6.976;2024-03-22T09:39:04;16.60;99.90
36384;DHT22;22418;51.210;6.976;2024-03-22T09:41:39;16.60;99.90
36384;DHT22;22418;51.210;6.976;2024-03-22T09:44:13;16.80;99.90
36384;DHT22;22418;51.210;6.976;2024-03-22T09:46:47;16.90;99.90
36384;DHT22;22418;51.210;6.976;2024-03-22T09:49:18;17.00;99.90
36384;DHT22;22418;51.210;6.976;2024-03-22T09:51:48;17.00;99.90
36384;DHT22;22418;51.210;6.976;2024-03-22T09:54:24;17.10;99.90
36384;DHT22;22418;51.210;6.976;2024-03-22T09:56:56;17.10;99.90
36384;DHT22;22418;51.210;6.976;2024-03-22T09:59:27;17.20;99.90
36384;DHT22;22418;51.210;6.976;2024-03-22T10:01:58;17.30;99.90
36384;DHT22;22418;51.210;6.976;2024-03-22T10:04:30;17.20;99.90
36384;DHT22;22418;51.210;6.976;2024-03-22T10:07:01;17.20;99.90
36384;DHT22;22418;51.210;6.976;2024-03-22T10:09:32;17.10;1.00
36384;DHT22;22418;51.210;6.976;2024-03-22T10:12:03;17.20;1.00
36384;DHT22;22418;51.210;6.976;2024-03-22T10:14:35;17.20;1.00
36384;DHT22;22418;51.210;6.976;2024-03-22T10:17:07;17.30;99.90
36384;DHT22;22418;51.210;6.976;2024-03-22T10:19:38;17.30;99.90
36384;DHT22;22418;51.210;6.976;2024-03-22T10:22:10;17.30;1.00
36384;DHT22;22418;51.210;6.976;2024-03-22T10:24:41;17.20;1.00
36384;DHT22;22418;51.210;6.976;2024-03-22T10:27:12;17.00;99.90
36384;DHT22;22418;51.210;6.976;2024-03-22T10:29:42;17.00;1.00
36384;DHT22;22418;51.210;6.976;2024-03-22T10:32:13;16.90;99.90
36384;DHT22;22418;51.210;6.976;2024-03-22T10:34:45;16.70;1.00
36384;DHT22;22418;51.210;6.976;2024-03-22T10:37:16;16.70;1.00
36384;DHT22;22418;51.210;6.976;2024-03-22T10:39:50;16.70;21.80
36384;DHT22;22418;51.210;6.976;2024-03-22T10:42:23;16.60;1.00
36384;DHT22;22418;51.210;6.976;2024-03-22T10:44:53;16.60;1.00
36384;DHT22;22418;51.210;6.976;2024-03-22T10:47:30;16.70;1.00
36384;DHT22;22418;51.210;6.976;2024-03-22T10:50:05;16.60;1.00
36384;DHT22;22418;51.210;6.976;2024-03-22T10:55:24;16.70;1.00
36384;DHT22;22418;51.210;6.976;2024-03-22T10:57:59;16.60;1.00
36384;DHT22;22418;51.210;6.976;2024-03-22T11:00:34;16.70;1.00
36384;DHT22;22418;51.210;6.976;2024-03-22T11:03:05;16.70;1.00
36384;DHT22;22418;51.210;6.976;2024-03-22T11:05:48;16.70;1.00
36384;DHT22;22418;51.210;6.976;2024-03-22T11:08:29;16.70;1.00
36384;DHT22;22418;51.210;6.976;2024-03-22T11:11:10;16.80;1.00
36384;DHT22;22418;51.210;6.976;2024-03-22T11:13:41;16.70;1.00
36384;DHT22;22418;51.210;6.976;2024-03-22T11:16:11;16.70;1.00
36384;DHT22;22418;51.210;6.976;2024-03-22T11:18:42;16.80;1.00
36384;DHT22;22418;51.210;6.976;2024-03-22T11:21:13;16.80;1.00
36384;DHT22;22418;51.210;6.976;2024-03-22T11:23:46;16.90;1.00
36384;DHT22;22418;51.210;6.976;2024-03-22T11:26:17;17.00;1.00
36384;DHT22;22418;51.210;6.976;2024-03-22T11:28:48;17.20;99.90
36384;DHT22;22418;51.210;6.976;2024-03-22T11:31:19;17.10;1.00
36384;DHT22;22418;51.210;6.976;2024-03-22T11:33:56;17.10;1.00
36384;DHT22;22418;51.210;6.976;2024-03-22T11:36:26;17.20;1.00
36384;DHT22;22418;51.210;6.976;2024-03-22T11:38:57;17.20;1.00
36384;DHT22;22418;51.210;6.976;2024-03-22T11:41:30;17.00;1.00
36384;DHT22;22418;51.210;6.976;2024-03-22T11:44:02;17.20;1.00
36384;DHT22;22418;51.210;6.976;2024-03-22T11:46:32;17.20;1.00
36384;DHT22;22418;51.210;6.976;2024-03-22T11:49:03;17.30;1.00
36384;DHT22;22418;51.210;6.976;2024-03-22T11:51:34;17.20;1.00
36384;DHT22;22418;51.210;6.976;2024-03-22T11:54:05;17.20;1.00
36384;DHT22;22418;51.210;6.976;2024-03-22T11:56:39;17.20;1.00
36384;DHT22;22418;51.210;6.976;2024-03-22T11:59:10;17.10;1.00
36384;DHT22;22418;51.210;6.976;2024-03-22T12:01:41;17.20;1.00
36384;DHT22;22418;51.210;6.976;2024-03-22T12:04:11;17.30;1.00
36384;DHT22;22418;51.210;6.976;2024-03-22T12:06:45;17.20;1.00
36384;DHT22;22418;51.210;6.976;2024-03-22T12:09:15;17.30;1.00
36384;DHT22;22418;51.210;6.976;2024-03-22T12:11:46;17.30;1.00
36384;DHT22;22418;51.210;6.976;2024-03-22T12:14:16;17.30;1.00
36384;DHT22;22418;51.210;6.976;2024-03-22T12:16:47;17.30;1.00
36384;DHT22;22418;51.210;6.976;2024-03-22T12:19:18;17.40;1.00
36384;DHT22;22418;51.210;6.976;2024-03-22T12:21:48;17.30;1.00
36384;DHT22;22418;51.210;6.976;2024-03-22T12:24:19;17.30;1.00
36384;DHT22;22418;51.210;6.976;2024-03-22T12:26:50;17.30;1.00
36384;DHT22;22418;51.210;6.976;2024-03-22T12:29:21;17.20;1.00
36384;DHT22;22418;51.210;6.976;2024-03-22T12:31:51;17.20;1.00
36384;DHT22;22418;51.210;6.976;2024-03-22T12:34:22;17.30;1.00
36384;DHT22;22418;51.210;6.976;2024-03-22T12:36:52;17.30;1.00
36384;DHT22;22418;51.210;6.976;2024-03-22T12:39:23;17.20;1.00
36384;DHT22;22418;51.210;6.976;2024-03-22T12:41:54;17.20;1.00
36384;DHT22;22418;51.210;6.976;2024-03-22T12:44:24;17.20;2.10
36384;DHT22;22418;51.210;6.976;2024-03-22T12:46:55;17.20;1.00
36384;DHT22;22418;51.210;6.976;2024-03-22T12:49:26;17.30;1.00
36384;DHT22;22418;51.210;6.976;2024-03-22T12:51:57;17.40;1.00
36384;DHT22;22418;51.210;6.976;2024-03-22T12:54:27;17.40;1.00
36384;DHT22;22418;51.210;6.976;2024-03-22T12:56:58;17.20;1.00
36384;DHT22;22418;51.210;6.976;2024-03-22T12:59:29;17.00;1.00
36384;DHT22;22418;51.210;6.976;2024-03-22T13:02:00;16.80;62.40
36384;DHT22;22418;51.210;6.976;2024-03-22T13:04:31;16.70;83.30
36384;DHT22;22418;51.210;6.976;2024-03-22T13:07:03;16.50;1.00
36384;DHT22;22418;51.210;6.976;2024-03-22T13:09:33;16.50;1.00
36384;DHT22;22418;51.210;6.976;2024-03-22T13:12:04;16.40;1.00
36384;DHT22;22418;51.210;6.976;2024-03-22T13:14:35;16.40;1.00
36384;DHT22;22418;51.210;6.976;2024-03-22T13:17:05;16.40;1.00
36384;DHT22;22418;51.210;6.976;2024-03-22T13:19:36;16.30;1.00
36384;DHT22;22418;51.210;6.976;2024-03-22T13:22:06;16.30;1.00
36384;DHT22;22418;51.210;6.976;2024-03-22T13:24:37;16.30;1.00
36384;DHT22;22418;51.210;6.976;2024-03-22T13:27:07;16.30;1.00
36384;DHT22;22418;51.210;6.976;2024-03-22T13:29:41;16.30;1.00
36384;DHT22;22418;51.210;6.976;2024-03-22T13:32:12;16.20;1.00
36384;DHT22;22418;51.210;6.976;2024-03-22T13:34:43;16.10;1.00
36384;DHT22;22418;51.210;6.976;2024-03-22T13:37:13;16.10;1.00
36384;DHT22;22418;51.210;6.976;2024-03-22T13:39:50;16.20;1.00
36384;DHT22;22418;51.210;6.976;2024-03-22T13:42:21;16.10;1.00
36384;DHT22;22418;51.210;6.976;2024-03-22T13:44:52;16.00;1.00
36384;DHT22;22418;51.210;6.976;2024-03-22T13:47:22;16.10;1.00
36384;DHT22;22418;51.210;6.976;2024-03-22T13:49:53;16.00;1.00
36384;DHT22;22418;51.210;6.976;2024-03-22T13:52:24;16.00;1.00
36384;DHT22;22418;51.210;6.976;2024-03-22T13:54:56;15.90;1.00
36384;DHT22;22418;51.210;6.976;2024-03-22T13:57:26;15.90;1.00
36384;DHT22;22418;51.210;6.976;2024-03-22T13:59:58;15.80;1.00
36384;DHT22;22418;51.210;6.976;2024-03-22T14:02:29;15.70;99.90
36384;DHT22;22418;51.210;6.976;2024-03-22T14:05:02;15.70;99.90
36384;DHT22;22418;51.210;6.976;2024-03-22T14:07:32;15.60;99.90
36384;DHT22;22418;51.210;6.976;2024-03-22T14:10:03;15.60;99.90
36384;DHT22;22418;51.210;6.976;2024-03-22T14:12:34;15.50;99.90
36384;DHT22;22418;51.210;6.976;2024-03-22T14:15:05;15.50;99.90
36384;DHT22;22418;51.210;6.976;2024-03-22T14:17:36;15.40;99.90
36384;DHT22;22418;51.210;6.976;2024-03-22T14:20:07;15.30;99.90
36384;DHT22;22418;51.210;6.976;2024-03-22T14:22:42;15.30;99.90
36384;DHT22;22418;51.210;6.976;2024-03-22T14:25:13;15.20;99.90
36384;DHT22;22418;51.210;6.976;2024-03-22T14:27:43;15.10;99.90
36384;DHT22;22418;51.210;6.976;2024-03-22T14:30:16;15.10;99.90
36384;DHT22;22418;51.210;6.976;2024-03-22T14:32:48;15.00;99.90
36384;DHT22;22418;51.210;6.976;2024-03-22T14:35:18;15.00;99.90
36384;DHT22;22418;51.210;6.976;2024-03-22T14:37:49;14.90;1.00
36384;DHT22;22418;51.210;6.976;2024-03-22T14:40:19;15.00;1.00
36384;DHT22;22418;51.210;6.976;2024-03-22T14:42:50;15.00;99.90
36384;DHT22;22418;51.210;6.976;2024-03-22T14:45:20;15.00;99.90
36384;DHT22;22418;51.210;6.976;2024-03-22T14:47:51;15.00;1.00
36384;DHT22;22418;51.210;6.976;2024-03-22T14:50:22;14.80;1.00
36384;DHT22;22418;51.210;6.976;2024-03-22T14:52:53;14.80;1.00
36384;DHT22;22418;51.210;6.976;2024-03-22T14:55:24;14.80;1.00
36384;DHT22;22418;51.210;6.976;2024-03-22T14:57:55;14.80;1.00
36384;DHT22;22418;51.210;6.976;2024-03-22T15:00:25;14.70;1.00
36384;DHT22;22418;51.210;6.976;2024-03-22T15:02:56;14.70;1.00
36384;DHT22;22418;51.210;6.976;2024-03-22T15:05:27;14.80;1.00
36384;DHT22;22418;51.210;6.976;2024-03-22T15:07:57;14.70;1.00
36384;DHT22;22418;51.210;6.976;2024-03-22T15:10:28;14.70;1.00
36384;DHT22;22418;51.210;6.976;2024-03-22T15:12:58;14.60;1.00
36384;DHT22;22418;51.210;6.976;2024-03-22T15:15:29;14.60;1.00
36384;DHT22;22418;51.210;6.976;2024-03-22T15:18:00;14.40;1.00
36384;DHT22;22418;51.210;6.976;2024-03-22T15:20:30;14.50;1.00
36384;DHT22;22418;51.210;6.976;2024-03-22T15:23:01;14.30;1.00
36384;DHT22;22418;51.210;6.976;2024-03-22T15:25:32;14.00;1.00
36384;DHT22;22418;51.210;6.976;2024-03-22T15:28:03;14.10;1.00
36384;DHT22;22418;51.210;6.976;2024-03-22T15:30:33;14.10;1.00
36384;DHT22;22418;51.210;6.976;2024-03-22T15:33:04;14.00;1.00
36384;DHT22;22418;51.210;6.976;2024-03-22T15:35:35;14.00;1.00
36384;DHT22;22418;51.210;6.976;2024-03-22T15:38:07;14.10;1.00
36384;DHT22;22418;51.210;6.976;2024-03-22T15:40:37;14.00;1.00
36384;DHT22;22418;51.210;6.976;2024-03-22T15:43:08;13.90;1.00
36384;DHT22;22418;51.210;6.976;2024-03-22T15:45:39;13.90;1.00
36384;DHT22;22418;51.210;6.976;2024-03-22T15:48:09;13.80;1.00
36384;DHT22;22418;51.210;6.976;2024-03-22T15:50:40;13.90;1.00
36384;DHT22;22418;51.210;6.976;2024-03-22T15:53:11;13.90;1.00
36384;DHT22;22418;51.210;6.976;2024-03-22T15:55:42;13.90;1.00
36384;DHT22;22418;51.210;6.976;2024-03-22T15:58:13;14.00;1.00
36384;DHT22;22418;51.210;6.976;2024-03-22T16:00:44;14.00;1.00
36384;DHT22;22418;51.210;6.976;2024-03-22T16:03:16;14.00;1.00
36384;DHT22;22418;51.210;6.976;2024-03-22T16:05:51;14.00;1.00
36384;DHT22;22418;51.210;6.976;2024-03-22T16:08:21;14.00;1.00
36384;DHT22;22418;51.210;6.976;2024-03-22T16:10:52;13.90;1.00